Pine Prairie, LA (70576)

10:26 AM CDT on August 31, 2015 (GMT -0500)
Soileau | | Change Station
CLOSE
Current Station
Personal Weather Station
Location: Oberlin, LA
Elevation: 79 ft
Nearby Weather Stations

Elev 79 ft 30.58 °N, 92.68 °W | Updated 12 minutes ago

Partly Cloudy
Partly Cloudy
91.9 °F
Feels Like 105 °F
N
3.1
Wind Variable Wind from ESE

Today
High -- | Low -- °F
--% Chance of Precip.
Yesterday
High -- | Low -- °F
Precip. -- in
6:45 AM 7:34 PM
Waning Gibbous, 95% visible
Pressure 30.08 in
Visibility 10.0 miles
Clouds Mostly Cloudy 1600 ft
Mostly Cloudy 2300 ft
Heat Index 105 °F
Dew Point 76 °F
Humidity 61%
Rainfall 0.00 in
Snow Depth Not available.
UV 3 out of 12
Pollen 6.50 out of 12
Air Quality Not available.
Flu Activity Not available.
METAR KOPL 311455Z AUTO 00000KT 10SM BKN016 BKN023 29/24 A3008 RMK AO2 T02910237
Pressure 30.08 in
Visibility 10.0 miles
Clouds Mostly Cloudy 1600 ft
Mostly Cloudy 2300 ft
Heat Index 105 °F
Dew Point 76 °F
Humidity 61%
Rainfall 0.00 in
Snow Depth Not available.
UV 3 out of 12
Pollen 6.50 out of 12
Air Quality Not available.
Flu Activity Not available.
METAR KOPL 311455Z AUTO 00000KT 10SM BKN016 BKN023 29/24 A3008 RMK AO2 T02910237

10-Day Weather Forecast

×

Almanac

Astronomy

Aug. 31, 2015 Rise Set
Actual Time
Civil Twilight
Nautical Twilight
Astronomical Twilight
Moon
Length of Visible Light
Length of Day
Tomorrow will be .
, % of the Moon is Illuminated

Today's Extremes

State Highs State Lows

Community

WunderPhotos

Upload Photos

1,851,281 photos uploaded!

WunderBlogs® & News

Nearby

Air Quality

  Air Quality AQ Index Pollutant
Not available.

Snow Depth

Station Depth Elevation

Earthquake Activity

City Distance Mag. Time & Date
Minimum magnitude displayed is 2.5.

Coastal Water Temperatures

Place Temperature

Stations

Nearby Weather Stations

Station Location Temp. Windchill Dew Point Humidity Wind Precip. Elev Updated Type